createdAt,value
2022-11-23T00:04:54.184Z,57.82
2022-11-23T00:09:56.054Z,57.79
2022-11-23T00:14:57.961Z,58.35
2022-11-23T00:20:00.009Z,58.32
2022-11-23T00:25:01.921Z,58.09
2022-11-23T00:30:05.142Z,58.51
2022-11-23T00:35:07.339Z,57.97
2022-11-23T00:40:10.069Z,58.29
2022-11-23T00:45:12.037Z,58.05
2022-11-23T00:50:13.967Z,58.29
2022-11-23T00:55:17.731Z,58.34
2022-11-23T01:00:19.915Z,57.88
2022-11-23T01:05:22.393Z,58.23
2022-11-23T01:10:24.485Z,58.44
2022-11-23T01:15:27.135Z,58.56
2022-11-23T01:20:29.071Z,58.11
2022-11-23T01:25:30.980Z,58.55
2022-11-23T01:30:34.636Z,58.50
2022-11-23T01:35:36.519Z,58.72
2022-11-23T01:40:42.592Z,58.15
2022-11-23T01:46:05.261Z,58.28
2022-11-23T01:51:15.700Z,58.29
2022-11-23T01:56:21.106Z,58.49
2022-11-23T02:01:23.086Z,58.71
2022-11-23T02:06:25.364Z,58.78
2022-11-23T02:11:27.244Z,58.36
2022-11-23T02:16:29.559Z,58.64
2022-11-23T02:21:31.585Z,58.67
2022-11-23T02:26:35.747Z,58.22
2022-11-23T02:31:39.087Z,58.13
2022-11-23T02:36:46.975Z,58.67
2022-11-23T02:41:53.829Z,58.21
2022-11-23T02:46:55.899Z,57.89
2022-11-23T02:51:57.743Z,58.33
2022-11-23T02:57:01.334Z,57.95
2022-11-23T03:02:05.125Z,58.56
2022-11-23T03:07:07.072Z,58.50
2022-11-23T03:12:09.369Z,58.72
2022-11-23T03:17:11.536Z,58.53
2022-11-23T03:22:16.367Z,58.33
2022-11-23T03:27:18.730Z,59.29
2022-11-23T03:32:21.557Z,59.43
2022-11-23T03:37:27.739Z,58.65
2022-11-23T03:42:29.724Z,59.01
2022-11-23T03:47:32.065Z,58.36
2022-11-23T03:52:34.231Z,59.37
2022-11-23T03:57:36.464Z,59.26
2022-11-23T04:02:40.075Z,58.56
2022-11-23T04:07:47.941Z,59.25
2022-11-23T04:12:53.376Z,59.60
2022-11-23T04:17:55.636Z,59.34
2022-11-23T04:22:58.504Z,59.34
2022-11-23T04:28:02.345Z,59.00
2022-11-23T04:33:04.983Z,58.74
2022-11-23T04:38:07.680Z,58.81
2022-11-23T04:43:11.259Z,59.17
2022-11-23T04:48:14.410Z,59.20
2022-11-23T04:53:17.678Z,58.96
2022-11-23T04:58:22.262Z,59.22
2022-11-23T05:03:31.190Z,59.47
2022-11-23T05:08:34.539Z,59.35
2022-11-23T05:13:52.680Z,59.39
2022-11-23T05:18:54.646Z,58.88
2022-11-23T05:23:56.540Z,58.81
2022-11-23T05:28:58.537Z,58.87
2022-11-23T05:34:02.361Z,58.96
2022-11-23T05:39:13.347Z,59.32
2022-11-23T05:44:15.427Z,59.47
2022-11-23T05:49:17.572Z,59.04
2022-11-23T05:54:19.738Z,58.96
2022-11-23T05:59:32.059Z,59.04
2022-11-23T06:04:37.114Z,59.26
2022-11-23T06:09:42.804Z,58.81
2022-11-23T06:14:46.832Z,59.01
2022-11-23T06:19:51.638Z,59.32
2022-11-23T06:24:53.572Z,58.78
2022-11-23T06:30:16.145Z,59.16
2022-11-23T06:35:19.657Z,58.93
2022-11-23T06:40:21.769Z,59.22
2022-11-23T06:45:25.307Z,59.29
2022-11-23T06:50:31.063Z,58.77
2022-11-23T06:55:34.132Z,59.37
2022-11-23T07:00:36.496Z,59.50
2022-11-23T07:05:39.188Z,59.06
2022-11-23T07:10:41.759Z,59.07
2022-11-23T07:15:45.622Z,59.27
2022-11-23T07:20:47.405Z,59.07
2022-11-23T07:25:49.494Z,59.59
2022-11-23T07:30:52.424Z,59.17
2022-11-23T07:35:56.231Z,59.02
2022-11-23T07:41:00.834Z,59.54
2022-11-23T07:46:19.830Z,59.80
2022-11-23T07:51:21.671Z,59.35
2022-11-23T07:56:24.048Z,59.68
2022-11-23T08:01:26.080Z,59.52
2022-11-23T08:06:27.917Z,59.56
2022-11-23T08:11:29.729Z,59.23
2022-11-23T08:16:31.617Z,59.21
2022-11-23T08:21:33.403Z,59.46
2022-11-23T08:26:35.757Z,59.61
2022-11-23T08:31:37.588Z,59.67
2022-11-23T08:36:39.396Z,59.35
2022-11-23T08:41:41.782Z,59.61
2022-11-23T08:46:43.576Z,59.26
2022-11-23T08:51:50.110Z,59.51
2022-11-23T08:56:52.371Z,59.61
2022-11-23T09:01:54.296Z,59.35
2022-11-23T09:06:56.097Z,59.30
2022-11-23T09:11:57.905Z,59.57
2022-11-23T09:17:01.927Z,59.96
2022-11-23T09:22:03.773Z,59.38
2022-11-23T09:27:05.643Z,59.41
2022-11-23T09:32:07.497Z,59.67
2022-11-23T09:37:09.347Z,59.50
2022-11-23T09:42:32.665Z,59.39
2022-11-23T09:47:52.428Z,59.63
2022-11-23T09:52:54.687Z,59.50
2022-11-23T09:58:02.622Z,59.97
2022-11-23T10:03:04.777Z,59.79
2022-11-23T10:08:23.398Z,59.59
2022-11-23T10:13:30.047Z,59.29
2022-11-23T10:18:41.525Z,59.61
2022-11-23T10:24:21.121Z,59.83
2022-11-23T10:29:27.167Z,59.16
2022-11-23T10:34:43.006Z,59.04
2022-11-23T10:39:45.049Z,59.23
2022-11-23T10:44:50.469Z,59.47
2022-11-23T10:49:58.996Z,59.65
2022-11-23T10:55:05.828Z,59.44
2022-11-23T11:00:11.280Z,59.44
2022-11-23T11:05:13.331Z,59.07
2022-11-23T11:10:36.661Z,59.04
2022-11-23T11:15:47.220Z,59.08
2022-11-23T11:20:57.453Z,59.04
2022-11-23T11:26:15.758Z,58.81
2022-11-23T11:31:42.031Z,59.15
2022-11-23T11:37:01.803Z,58.77
2022-11-23T11:42:12.052Z,59.04
2022-11-23T11:47:23.167Z,58.69
2022-11-23T11:52:27.222Z,58.93
2022-11-23T11:57:39.080Z,58.82
2022-11-23T12:03:01.124Z,58.89
2022-11-23T12:08:10.747Z,58.18
2022-11-23T12:13:17.532Z,58.59
2022-11-23T12:18:38.672Z,58.60
2022-11-23T12:23:56.713Z,57.94
2022-11-23T12:29:20.969Z,57.49
2022-11-23T12:35:00.904Z,57.85
2022-11-23T12:40:17.511Z,57.13
2022-11-23T12:45:30.143Z,57.19
2022-11-23T12:51:20.050Z,57.45
2022-11-23T12:56:48.438Z,57.51
2022-11-23T13:01:56.071Z,57.19
2022-11-23T13:07:41.002Z,56.94
2022-11-23T13:13:40.603Z,56.89
2022-11-23T13:19:10.180Z,57.01
2022-11-23T13:24:33.022Z,56.78
2022-11-23T13:29:50.433Z,57.05
2022-11-23T13:34:52.354Z,56.79
2022-11-23T13:40:00.425Z,56.91
2022-11-23T13:45:21.451Z,56.75
2022-11-23T13:50:23.682Z,57.03
2022-11-23T13:55:37.460Z,56.75
2022-11-23T14:00:48.300Z,56.79
2022-11-23T14:05:50.095Z,56.70
2022-11-23T14:10:52.430Z,56.04
2022-11-23T14:15:58.525Z,56.32
2022-11-23T14:21:29.864Z,56.54
2022-11-23T14:26:56.173Z,56.56
2022-11-23T14:32:07.298Z,56.25
2022-11-23T14:37:30.788Z,56.67
2022-11-23T14:42:40.772Z,56.47
2022-11-23T14:47:42.853Z,56.29
2022-11-23T14:52:45.317Z,56.62
2022-11-23T14:57:48.403Z,56.55
2022-11-23T15:02:50.704Z,56.72
2022-11-23T15:08:00.281Z,56.63
2022-11-23T15:13:02.128Z,57.11
2022-11-23T15:18:04.043Z,56.99
2022-11-23T15:23:05.960Z,56.82
2022-11-23T15:28:17.224Z,57.23
2022-11-23T15:33:21.382Z,56.50
2022-11-23T15:38:24.081Z,56.69
2022-11-23T15:43:26.208Z,56.83
2022-11-23T15:48:35.721Z,56.67
2022-11-23T15:53:50.569Z,57.34
2022-11-23T15:58:53.800Z,57.30
2022-11-23T16:04:04.910Z,57.33
2022-11-23T16:09:53.037Z,57.56
2022-11-23T16:14:57.112Z,57.50
2022-11-23T16:20:04.843Z,57.89
2022-11-23T16:25:16.303Z,57.35
2022-11-23T16:30:26.058Z,57.70
2022-11-23T16:35:27.986Z,57.35
2022-11-23T16:40:30.791Z,57.39
2022-11-23T16:45:33.027Z,57.83
2022-11-23T16:50:35.017Z,57.48
2022-11-23T16:55:42.258Z,57.92
2022-11-23T17:00:45.859Z,57.86
2022-11-23T17:05:48.231Z,57.93
2022-11-23T17:10:50.834Z,57.98
2022-11-23T17:15:53.241Z,58.10
2022-11-23T17:20:56.198Z,58.04
2022-11-23T17:25:58.712Z,58.01
2022-11-23T17:31:01.912Z,57.66
2022-11-23T17:36:04.492Z,58.21
2022-11-23T17:41:06.357Z,57.76
2022-11-23T17:46:20.993Z,57.92
2022-11-23T17:51:24.116Z,57.91
2022-11-23T17:56:26.607Z,57.86
2022-11-23T18:01:29.313Z,58.00
2022-11-23T18:06:31.617Z,58.01
2022-11-23T18:11:33.402Z,57.89
2022-11-23T18:16:35.203Z,57.87
2022-11-23T18:21:37.283Z,58.57
2022-11-23T18:26:39.103Z,58.00
2022-11-23T18:31:41.030Z,58.06
2022-11-23T18:36:42.991Z,58.11
2022-11-23T18:41:44.820Z,58.08
2022-11-23T18:46:46.747Z,58.23
2022-11-23T18:51:48.676Z,58.21
2022-11-23T18:56:50.479Z,58.24
2022-11-23T19:01:52.375Z,58.25
2022-11-23T19:06:54.292Z,58.29
2022-11-23T19:11:56.566Z,58.28
2022-11-23T19:16:58.651Z,58.21
2022-11-23T19:22:00.632Z,58.04
2022-11-23T19:27:02.456Z,58.00
2022-11-23T19:32:04.548Z,58.38
2022-11-23T19:37:06.619Z,58.80
2022-11-23T19:42:08.674Z,58.74
2022-11-23T19:47:16.317Z,58.37
2022-11-23T19:52:19.495Z,58.71
2022-11-23T19:57:21.423Z,58.57
2022-11-23T20:02:25.205Z,58.77
2022-11-23T20:07:27.212Z,58.86
2022-11-23T20:12:29.209Z,58.83
2022-11-23T20:17:30.985Z,58.96
2022-11-23T20:22:32.831Z,58.88
2022-11-23T20:27:34.629Z,58.88
2022-11-23T20:32:36.494Z,58.81
2022-11-23T20:37:38.289Z,58.71
2022-11-23T20:42:40.176Z,58.83
2022-11-23T20:47:42.244Z,58.61
2022-11-23T20:52:44.123Z,59.17
2022-11-23T20:57:45.926Z,59.50
2022-11-23T21:02:52.341Z,59.72
2022-11-23T21:07:54.269Z,59.45
2022-11-23T21:13:14.593Z,59.72
2022-11-23T21:18:16.273Z,59.12
2022-11-23T21:23:18.071Z,59.24
2022-11-23T21:28:19.853Z,59.90
2022-11-23T21:33:21.710Z,59.97
2022-11-23T21:38:31.288Z,60.26
2022-11-23T21:43:33.592Z,59.59
2022-11-23T21:48:36.190Z,58.89
2022-11-23T21:53:47.695Z,58.62
2022-11-23T21:58:49.761Z,59.16
2022-11-23T22:03:57.332Z,58.75
2022-11-23T22:09:04.843Z,59.17
2022-11-23T22:14:09.803Z,58.72
2022-11-23T22:19:13.565Z,59.46
2022-11-23T22:24:17.969Z,59.06
2022-11-23T22:29:20.458Z,59.13
2022-11-23T22:34:22.319Z,58.72
2022-11-23T22:39:24.179Z,58.81
2022-11-23T22:44:26.055Z,59.26
2022-11-23T22:49:27.862Z,58.95
2022-11-23T22:54:29.629Z,58.99
2022-11-23T22:59:31.445Z,59.53
2022-11-23T23:04:33.532Z,59.06
2022-11-23T23:09:35.544Z,58.48
2022-11-23T23:14:37.371Z,58.33
2022-11-23T23:19:39.149Z,58.17
2022-11-23T23:24:41.247Z,58.33
2022-11-23T23:29:43.090Z,58.27
2022-11-23T23:34:45.125Z,58.37
2022-11-23T23:39:46.902Z,58.98
2022-11-23T23:44:48.692Z,59.03
2022-11-23T23:49:50.459Z,58.63
2022-11-23T23:54:52.261Z,58.44
2022-11-23T23:59:54.035Z,58.84
